sensor_id;sensor_type;location;lat;lon;timestamp;P1;durP1;ratioP1;P2;durP2;ratioP2
11052;SDS011;55230;42.602;23.470;2024-01-16T01:22:36;23.08;;;11.65;;
11052;SDS011;55230;42.602;23.470;2024-01-16T01:25:14;35.08;;;16.38;;
11052;SDS011;55230;42.602;23.470;2024-01-16T01:27:58;20.40;;;13.13;;
11052;SDS011;55230;42.602;23.470;2024-01-16T01:30:33;21.83;;;13.75;;
11052;SDS011;55230;42.602;23.470;2024-01-16T01:36:14;18.98;;;11.45;;
11052;SDS011;55230;42.602;23.470;2024-01-16T01:39:09;21.35;;;11.98;;
11052;SDS011;55230;42.602;23.470;2024-01-16T02:10:27;8.07;;;5.88;;
11052;SDS011;55230;42.602;23.470;2024-01-16T02:13:26;5.38;;;4.85;;
11052;SDS011;55230;42.602;23.470;2024-01-16T02:27:35;6.60;;;3.90;;
11052;SDS011;55230;42.602;23.470;2024-01-16T02:30:56;6.82;;;4.07;;
11052;SDS011;55230;42.602;23.470;2024-01-16T02:37:07;4.70;;;4.25;;
11052;SDS011;55230;42.602;23.470;2024-01-16T02:40:07;6.03;;;3.90;;
11052;SDS011;55230;42.602;23.470;2024-01-16T02:42:58;6.28;;;4.43;;
11052;SDS011;55230;42.602;23.470;2024-01-16T02:45:54;5.57;;;5.00;;
11052;SDS011;55230;42.602;23.470;2024-01-16T02:48:25;5.47;;;4.53;;
11052;SDS011;55230;42.602;23.470;2024-01-16T02:53:50;7.50;;;4.75;;
11052;SDS011;55230;42.602;23.470;2024-01-16T02:56:23;9.57;;;8.10;;
11052;SDS011;55230;42.602;23.470;2024-01-16T03:24:01;4.32;;;3.95;;
11052;SDS011;55230;42.602;23.470;2024-01-16T03:26:39;3.50;;;3.05;;
11052;SDS011;55230;42.602;23.470;2024-01-16T03:29:05;4.90;;;2.95;;
11052;SDS011;55230;42.602;23.470;2024-01-16T03:31:36;6.28;;;3.65;;
11052;SDS011;55230;42.602;23.470;2024-01-16T03:34:04;4.10;;;3.70;;
11052;SDS011;55230;42.602;23.470;2024-01-16T03:36:33;5.85;;;4.28;;
11052;SDS011;55230;42.602;23.470;2024-01-16T03:38:58;4.75;;;4.20;;
11052;SDS011;55230;42.602;23.470;2024-01-16T03:41:26;7.05;;;3.83;;
11052;SDS011;55230;42.602;23.470;2024-01-16T03:43:57;5.88;;;5.05;;
11052;SDS011;55230;42.602;23.470;2024-01-16T03:46:26;5.00;;;4.43;;
11052;SDS011;55230;42.602;23.470;2024-01-16T03:48:51;7.32;;;4.95;;
11052;SDS011;55230;42.602;23.470;2024-01-16T03:51:17;4.70;;;4.30;;
11052;SDS011;55230;42.602;23.470;2024-01-16T03:56:39;6.75;;;4.28;;
11052;SDS011;55230;42.602;23.470;2024-01-16T03:59:19;5.18;;;4.68;;
11052;SDS011;55230;42.602;23.470;2024-01-16T04:01:48;5.40;;;4.75;;
11052;SDS011;55230;42.602;23.470;2024-01-16T04:04:23;4.03;;;3.20;;
11052;SDS011;55230;42.602;23.470;2024-01-16T04:06:49;3.63;;;3.40;;
11052;SDS011;55230;42.602;23.470;2024-01-16T04:09:43;4.80;;;4.22;;
11052;SDS011;55230;42.602;23.470;2024-01-16T04:12:08;4.70;;;4.20;;
11052;SDS011;55230;42.602;23.470;2024-01-16T04:14:34;4.03;;;3.22;;
11052;SDS011;55230;42.602;23.470;2024-01-16T04:17:02;3.75;;;3.55;;
11052;SDS011;55230;42.602;23.470;2024-01-16T04:19:27;4.03;;;3.72;;
11052;SDS011;55230;42.602;23.470;2024-01-16T04:21:53;5.75;;;5.25;;
11052;SDS011;55230;42.602;23.470;2024-01-16T04:24:19;4.63;;;4.22;;
11052;SDS011;55230;42.602;23.470;2024-01-16T04:26:44;5.10;;;4.53;;
11052;SDS011;55230;42.602;23.470;2024-01-16T04:29:09;4.55;;;3.20;;
11052;SDS011;55230;42.602;23.470;2024-01-16T04:31:40;4.15;;;3.75;;
11052;SDS011;55230;42.602;23.470;2024-01-16T04:34:17;3.60;;;3.30;;
11052;SDS011;55230;42.602;23.470;2024-01-16T04:36:42;2.53;;;2.33;;
11052;SDS011;55230;42.602;23.470;2024-01-16T04:39:11;2.42;;;2.25;;
11052;SDS011;55230;42.602;23.470;2024-01-16T04:41:39;2.35;;;2.15;;
11052;SDS011;55230;42.602;23.470;2024-01-16T04:44:05;2.78;;;2.45;;
11052;SDS011;55230;42.602;23.470;2024-01-16T04:46:30;2.22;;;2.13;;
11052;SDS011;55230;42.602;23.470;2024-01-16T04:48:55;2.33;;;2.13;;
11052;SDS011;55230;42.602;23.470;2024-01-16T04:54:35;2.45;;;2.25;;
11052;SDS011;55230;42.602;23.470;2024-01-16T04:57:01;2.00;;;1.90;;
11052;SDS011;55230;42.602;23.470;2024-01-16T04:59:26;2.20;;;2.10;;
11052;SDS011;55230;42.602;23.470;2024-01-16T05:01:52;2.20;;;1.92;;
11052;SDS011;55230;42.602;23.470;2024-01-16T05:04:17;2.30;;;2.17;;
11052;SDS011;55230;42.602;23.470;2024-01-16T05:06:43;1.70;;;1.60;;
11052;SDS011;55230;42.602;23.470;2024-01-16T05:09:08;1.40;;;1.30;;
11052;SDS011;55230;42.602;23.470;2024-01-16T05:11:34;2.28;;;2.13;;
11052;SDS011;55230;42.602;23.470;2024-01-16T05:14:00;2.05;;;1.70;;
11052;SDS011;55230;42.602;23.470;2024-01-16T05:16:25;1.90;;;1.80;;
11052;SDS011;55230;42.602;23.470;2024-01-16T05:18:52;2.40;;;2.30;;
11052;SDS011;55230;42.602;23.470;2024-01-16T05:21:21;2.42;;;2.22;;
11052;SDS011;55230;42.602;23.470;2024-01-16T05:23:46;2.00;;;1.90;;
11052;SDS011;55230;42.602;23.470;2024-01-16T05:26:12;2.83;;;2.63;;
11052;SDS011;55230;42.602;23.470;2024-01-16T05:28:38;1.70;;;1.60;;
11052;SDS011;55230;42.602;23.470;2024-01-16T05:31:04;2.20;;;2.10;;
11052;SDS011;55230;42.602;23.470;2024-01-16T05:33:29;2.00;;;1.90;;
11052;SDS011;55230;42.602;23.470;2024-01-16T05:35:58;2.50;;;2.30;;
11052;SDS011;55230;42.602;23.470;2024-01-16T05:38:23;1.88;;;1.75;;
11052;SDS011;55230;42.602;23.470;2024-01-16T05:40:49;2.00;;;1.80;;
11052;SDS011;55230;42.602;23.470;2024-01-16T05:43:17;1.90;;;1.80;;
11052;SDS011;55230;42.602;23.470;2024-01-16T05:45:43;2.28;;;2.00;;
11052;SDS011;55230;42.602;23.470;2024-01-16T05:48:08;1.92;;;1.83;;
11052;SDS011;55230;42.602;23.470;2024-01-16T05:50:34;1.77;;;1.67;;
11052;SDS011;55230;42.602;23.470;2024-01-16T05:53:01;1.17;;;1.17;;
11052;SDS011;55230;42.602;23.470;2024-01-16T05:55:27;1.70;;;1.60;;
11052;SDS011;55230;42.602;23.470;2024-01-16T05:57:53;1.38;;;1.27;;
11052;SDS011;55230;42.602;23.470;2024-01-16T06:03:27;1.42;;;1.42;;
11052;SDS011;55230;42.602;23.470;2024-01-16T06:05:53;0.80;;;0.80;;
11052;SDS011;55230;42.602;23.470;2024-01-16T06:08:22;1.92;;;1.83;;
11052;SDS011;55230;42.602;23.470;2024-01-16T06:11:01;2.13;;;2.03;;
11052;SDS011;55230;42.602;23.470;2024-01-16T06:13:48;1.55;;;1.55;;
11052;SDS011;55230;42.602;23.470;2024-01-16T06:16:14;1.55;;;1.45;;
11052;SDS011;55230;42.602;23.470;2024-01-16T06:18:46;1.70;;;1.52;;
11052;SDS011;55230;42.602;23.470;2024-01-16T06:21:17;1.90;;;1.80;;
11052;SDS011;55230;42.602;23.470;2024-01-16T06:23:43;26.00;;;10.60;;
11052;SDS011;55230;42.602;23.470;2024-01-16T06:26:53;2.58;;;2.40;;
11052;SDS011;55230;42.602;23.470;2024-01-16T06:29:19;2.75;;;2.55;;
11052;SDS011;55230;42.602;23.470;2024-01-16T06:31:45;3.53;;;2.85;;
11052;SDS011;55230;42.602;23.470;2024-01-16T06:34:13;2.92;;;2.72;;
11052;SDS011;55230;42.602;23.470;2024-01-16T06:36:39;2.05;;;1.90;;
11052;SDS011;55230;42.602;23.470;2024-01-16T06:39:07;2.78;;;2.33;;
11052;SDS011;55230;42.602;23.470;2024-01-16T06:41:33;2.17;;;2.08;;
11052;SDS011;55230;42.602;23.470;2024-01-16T06:43:58;2.92;;;2.70;;
11052;SDS011;55230;42.602;23.470;2024-01-16T06:46:27;2.70;;;2.47;;
11052;SDS011;55230;42.602;23.470;2024-01-16T06:48:57;3.00;;;1.90;;
11052;SDS011;55230;42.602;23.470;2024-01-16T06:51:23;61.22;;;34.13;;
11052;SDS011;55230;42.602;23.470;2024-01-16T07:28:01;1.48;;;1.38;;
11052;SDS011;55230;42.602;23.470;2024-01-16T07:30:26;1.88;;;1.77;;
11052;SDS011;55230;42.602;23.470;2024-01-16T07:32:52;1.98;;;1.88;;
11052;SDS011;55230;42.602;23.470;2024-01-16T07:35:27;2.00;;;1.90;;
11052;SDS011;55230;42.602;23.470;2024-01-16T07:37:55;1.70;;;1.13;;
11052;SDS011;55230;42.602;23.470;2024-01-16T07:40:21;1.73;;;1.40;;
11052;SDS011;55230;42.602;23.470;2024-01-16T07:46:09;1.83;;;1.73;;
11052;SDS011;55230;42.602;23.470;2024-01-16T07:48:41;1.67;;;1.58;;
11052;SDS011;55230;42.602;23.470;2024-01-16T07:51:29;1.70;;;1.60;;
11052;SDS011;55230;42.602;23.470;2024-01-16T07:54:22;4.30;;;2.42;;
11052;SDS011;55230;42.602;23.470;2024-01-16T07:57:22;3.15;;;1.52;;
11052;SDS011;55230;42.602;23.470;2024-01-16T07:59:48;2.17;;;1.88;;
11052;SDS011;55230;42.602;23.470;2024-01-16T08:02:20;2.38;;;2.28;;
11052;SDS011;55230;42.602;23.470;2024-01-16T08:04:47;2.58;;;2.47;;
11052;SDS011;55230;42.602;23.470;2024-01-16T08:07:13;1.85;;;1.75;;
11052;SDS011;55230;42.602;23.470;2024-01-16T08:14:58;1.75;;;1.65;;
11052;SDS011;55230;42.602;23.470;2024-01-16T08:20:01;1.77;;;1.67;;
11052;SDS011;55230;42.602;23.470;2024-01-16T08:22:38;1.85;;;1.75;;
11052;SDS011;55230;42.602;23.470;2024-01-16T08:25:11;1.75;;;1.63;;
11052;SDS011;55230;42.602;23.470;2024-01-16T08:27:37;3.03;;;1.35;;
11052;SDS011;55230;42.602;23.470;2024-01-16T08:30:04;1.60;;;1.50;;
11052;SDS011;55230;42.602;23.470;2024-01-16T08:32:32;1.63;;;1.52;;
11052;SDS011;55230;42.602;23.470;2024-01-16T08:35:00;1.55;;;1.45;;
11052;SDS011;55230;42.602;23.470;2024-01-16T08:37:26;2.42;;;2.22;;
11052;SDS011;55230;42.602;23.470;2024-01-16T08:39:55;1.67;;;1.58;;
11052;SDS011;55230;42.602;23.470;2024-01-16T08:42:21;2.15;;;2.05;;
11052;SDS011;55230;42.602;23.470;2024-01-16T08:45:09;1.55;;;1.45;;
11052;SDS011;55230;42.602;23.470;2024-01-16T08:47:37;2.08;;;1.98;;
11052;SDS011;55230;42.602;23.470;2024-01-16T08:50:03;2.40;;;2.20;;
11052;SDS011;55230;42.602;23.470;2024-01-16T08:52:29;2.25;;;2.15;;
11052;SDS011;55230;42.602;23.470;2024-01-16T08:54:55;1.80;;;1.70;;
11052;SDS011;55230;42.602;23.470;2024-01-16T08:57:21;1.88;;;1.77;;
11052;SDS011;55230;42.602;23.470;2024-01-16T08:59:49;3.08;;;2.03;;
11052;SDS011;55230;42.602;23.470;2024-01-16T09:02:15;2.20;;;2.00;;
11052;SDS011;55230;42.602;23.470;2024-01-16T09:04:46;2.50;;;2.30;;
11052;SDS011;55230;42.602;23.470;2024-01-16T09:07:26;2.33;;;1.83;;
11052;SDS011;55230;42.602;23.470;2024-01-16T09:10:05;3.53;;;2.25;;
11052;SDS011;55230;42.602;23.470;2024-01-16T09:12:37;1.70;;;1.60;;
11052;SDS011;55230;42.602;23.470;2024-01-16T09:15:05;2.05;;;1.40;;
11052;SDS011;55230;42.602;23.470;2024-01-16T09:17:31;1.80;;;1.70;;
11052;SDS011;55230;42.602;23.470;2024-01-16T09:19:57;2.17;;;1.98;;
11052;SDS011;55230;42.602;23.470;2024-01-16T09:22:22;1.60;;;1.50;;
11052;SDS011;55230;42.602;23.470;2024-01-16T09:24:48;1.98;;;1.83;;
11052;SDS011;55230;42.602;23.470;2024-01-16T09:27:13;2.20;;;1.88;;
11052;SDS011;55230;42.602;23.470;2024-01-16T09:29:41;1.80;;;1.70;;
11052;SDS011;55230;42.602;23.470;2024-01-16T09:32:07;2.08;;;1.98;;
11052;SDS011;55230;42.602;23.470;2024-01-16T09:34:32;2.78;;;1.98;;
11052;SDS011;55230;42.602;23.470;2024-01-16T09:36:58;3.72;;;3.35;;
11052;SDS011;55230;42.602;23.470;2024-01-16T09:39:26;3.00;;;2.80;;
11052;SDS011;55230;42.602;23.470;2024-01-16T09:41:51;2.22;;;2.00;;
11052;SDS011;55230;42.602;23.470;2024-01-16T09:44:17;2.72;;;2.53;;
11052;SDS011;55230;42.602;23.470;2024-01-16T09:46:43;2.10;;;1.92;;
11052;SDS011;55230;42.602;23.470;2024-01-16T09:49:11;3.40;;;3.15;;
11052;SDS011;55230;42.602;23.470;2024-01-16T09:51:39;1.73;;;1.63;;
11052;SDS011;55230;42.602;23.470;2024-01-16T09:54:04;2.15;;;1.95;;
11052;SDS011;55230;42.602;23.470;2024-01-16T09:56:33;2.40;;;2.20;;
11052;SDS011;55230;42.602;23.470;2024-01-16T09:59:05;2.63;;;2.42;;
11052;SDS011;55230;42.602;23.470;2024-01-16T10:01:32;2.10;;;1.90;;
11052;SDS011;55230;42.602;23.470;2024-01-16T10:03:58;1.90;;;1.80;;
11052;SDS011;55230;42.602;23.470;2024-01-16T10:06:24;4.40;;;2.03;;
11052;SDS011;55230;42.602;23.470;2024-01-16T10:08:52;2.75;;;2.05;;
11052;SDS011;55230;42.602;23.470;2024-01-16T10:11:18;2.30;;;2.20;;
11052;SDS011;55230;42.602;23.470;2024-01-16T10:13:44;1.92;;;1.83;;
11052;SDS011;55230;42.602;23.470;2024-01-16T10:16:10;1.85;;;1.75;;
11052;SDS011;55230;42.602;23.470;2024-01-16T10:18:35;1.33;;;1.25;;
11052;SDS011;55230;42.602;23.470;2024-01-16T10:21:03;1.90;;;1.80;;
11052;SDS011;55230;42.602;23.470;2024-01-16T10:23:29;3.80;;;2.35;;
11052;SDS011;55230;42.602;23.470;2024-01-16T10:28:32;2.55;;;2.42;;
11052;SDS011;55230;42.602;23.470;2024-01-16T10:31:02;2.83;;;1.83;;
11052;SDS011;55230;42.602;23.470;2024-01-16T10:33:31;2.00;;;1.60;;
11052;SDS011;55230;42.602;23.470;2024-01-16T10:36:18;2.47;;;2.22;;
11052;SDS011;55230;42.602;23.470;2024-01-16T10:39:01;2.22;;;2.03;;
11052;SDS011;55230;42.602;23.470;2024-01-16T10:41:37;2.25;;;2.05;;
11052;SDS011;55230;42.602;23.470;2024-01-16T10:44:06;1.73;;;1.63;;
11052;SDS011;55230;42.602;23.470;2024-01-16T10:46:33;2.45;;;2.03;;
11052;SDS011;55230;42.602;23.470;2024-01-16T10:48:59;2.63;;;2.28;;
11052;SDS011;55230;42.602;23.470;2024-01-16T10:51:35;2.22;;;2.00;;
11052;SDS011;55230;42.602;23.470;2024-01-16T10:54:06;1.88;;;1.77;;
11052;SDS011;55230;42.602;23.470;2024-01-16T10:56:39;1.90;;;1.80;;
11052;SDS011;55230;42.602;23.470;2024-01-16T11:01:58;3.85;;;1.60;;
11052;SDS011;55230;42.602;23.470;2024-01-16T11:04:35;2.45;;;2.25;;
11052;SDS011;55230;42.602;23.470;2024-01-16T11:07:04;2.40;;;2.13;;
11052;SDS011;55230;42.602;23.470;2024-01-16T11:09:31;1.48;;;1.38;;
11052;SDS011;55230;42.602;23.470;2024-01-16T11:11:57;2.33;;;2.13;;
11052;SDS011;55230;42.602;23.470;2024-01-16T11:14:23;2.47;;;2.00;;
11052;SDS011;55230;42.602;23.470;2024-01-16T11:39:26;2.45;;;2.28;;
11052;SDS011;55230;42.602;23.470;2024-01-16T12:03:20;7.97;;;6.75;;
11052;SDS011;55230;42.602;23.470;2024-01-16T12:05:56;11.95;;;6.70;;
11052;SDS011;55230;42.602;23.470;2024-01-16T12:08:22;8.93;;;6.63;;
11052;SDS011;55230;42.602;23.470;2024-01-16T12:10:51;4.07;;;3.67;;
11052;SDS011;55230;42.602;23.470;2024-01-16T12:13:17;4.63;;;4.32;;
11052;SDS011;55230;42.602;23.470;2024-01-16T12:15:42;2.40;;;2.30;;
11052;SDS011;55230;42.602;23.470;2024-01-16T12:18:18;2.40;;;2.30;;
11052;SDS011;55230;42.602;23.470;2024-01-16T12:20:44;3.50;;;3.20;;
11052;SDS011;55230;42.602;23.470;2024-01-16T12:23:14;2.05;;;1.95;;
11052;SDS011;55230;42.602;23.470;2024-01-16T12:25:51;2.05;;;1.35;;
11052;SDS011;55230;42.602;23.470;2024-01-16T12:28:32;2.97;;;2.55;;
11052;SDS011;55230;42.602;23.470;2024-01-16T12:37:21;2.65;;;2.45;;
11052;SDS011;55230;42.602;23.470;2024-01-16T12:40:10;2.97;;;2.67;;
11052;SDS011;55230;42.602;23.470;2024-01-16T12:42:39;8.35;;;2.92;;
11052;SDS011;55230;42.602;23.470;2024-01-16T12:45:08;3.83;;;3.53;;
11052;SDS011;55230;42.602;23.470;2024-01-16T12:47:52;3.55;;;3.25;;
11052;SDS011;55230;42.602;23.470;2024-01-16T12:53:40;3.80;;;2.90;;
11052;SDS011;55230;42.602;23.470;2024-01-16T12:56:12;2.92;;;2.60;;
11052;SDS011;55230;42.602;23.470;2024-01-16T12:58:37;3.28;;;2.65;;
11052;SDS011;55230;42.602;23.470;2024-01-16T13:04:12;3.05;;;2.25;;
11052;SDS011;55230;42.602;23.470;2024-01-16T13:06:41;4.28;;;2.13;;
11052;SDS011;55230;42.602;23.470;2024-01-16T13:09:09;2.30;;;2.10;;
11052;SDS011;55230;42.602;23.470;2024-01-16T13:12:01;4.03;;;2.88;;
11052;SDS011;55230;42.602;23.470;2024-01-16T13:14:25;2.50;;;2.30;;
11052;SDS011;55230;42.602;23.470;2024-01-16T13:16:53;1.70;;;1.60;;
11052;SDS011;55230;42.602;23.470;2024-01-16T13:19:22;2.30;;;2.15;;
11052;SDS011;55230;42.602;23.470;2024-01-16T13:21:48;3.05;;;2.85;;
11052;SDS011;55230;42.602;23.470;2024-01-16T13:24:13;3.85;;;2.65;;
11052;SDS011;55230;42.602;23.470;2024-01-16T13:26:39;1.95;;;1.83;;
11052;SDS011;55230;42.602;23.470;2024-01-16T13:29:07;2.85;;;2.33;;
11052;SDS011;55230;42.602;23.470;2024-01-16T13:31:52;3.38;;;2.20;;
11052;SDS011;55230;42.602;23.470;2024-01-16T13:34:38;2.45;;;2.25;;
11052;SDS011;55230;42.602;23.470;2024-01-16T13:37:16;2.42;;;1.90;;
11052;SDS011;55230;42.602;23.470;2024-01-16T13:39:46;4.05;;;3.75;;
11052;SDS011;55230;42.602;23.470;2024-01-16T13:42:12;3.55;;;3.25;;
11052;SDS011;55230;42.602;23.470;2024-01-16T13:44:57;2.28;;;2.17;;
11052;SDS011;55230;42.602;23.470;2024-01-16T13:47:23;3.00;;;2.53;;
11052;SDS011;55230;42.602;23.470;2024-01-16T13:49:48;2.55;;;2.20;;
11052;SDS011;55230;42.602;23.470;2024-01-16T13:52:14;2.72;;;2.20;;
11052;SDS011;55230;42.602;23.470;2024-01-16T13:54:39;4.10;;;3.70;;
11052;SDS011;55230;42.602;23.470;2024-01-16T16:23:06;8.30;;;5.80;;
11052;SDS011;55230;42.602;23.470;2024-01-16T16:34:20;6.65;;;5.55;;
11052;SDS011;55230;42.602;23.470;2024-01-16T16:36:55;6.38;;;5.78;;
11052;SDS011;55230;42.602;23.470;2024-01-16T16:39:43;8.98;;;5.00;;
11052;SDS011;55230;42.602;23.470;2024-01-16T16:42:12;6.95;;;5.85;;
11052;SDS011;55230;42.602;23.470;2024-01-16T16:44:49;6.25;;;4.65;;
11052;SDS011;55230;42.602;23.470;2024-01-16T16:49:50;9.15;;;5.53;;
11052;SDS011;55230;42.602;23.470;2024-01-16T16:52:15;23.52;;;10.35;;
11052;SDS011;55230;42.602;23.470;2024-01-16T16:54:52;76.35;;;34.35;;
11052;SDS011;55230;42.602;23.470;2024-01-16T16:57:21;135.82;;;62.10;;
11052;SDS011;55230;42.602;23.470;2024-01-16T17:00:04;107.13;;;56.83;;
11052;SDS011;55230;42.602;23.470;2024-01-16T17:02:33;130.77;;;65.68;;
11052;SDS011;55230;42.602;23.470;2024-01-16T17:05:02;69.03;;;33.47;;
11052;SDS011;55230;42.602;23.470;2024-01-16T17:07:31;58.97;;;34.45;;
11052;SDS011;55230;42.602;23.470;2024-01-16T17:10:01;105.47;;;55.88;;
11052;SDS011;55230;42.602;23.470;2024-01-16T17:12:27;131.57;;;69.07;;
11052;SDS011;55230;42.602;23.470;2024-01-16T17:14:53;91.15;;;47.00;;
11052;SDS011;55230;42.602;23.470;2024-01-16T17:17:20;133.13;;;56.22;;
11052;SDS011;55230;42.602;23.470;2024-01-16T17:19:46;98.53;;;46.47;;
11052;SDS011;55230;42.602;23.470;2024-01-16T17:22:11;104.85;;;46.65;;
11052;SDS011;55230;42.602;23.470;2024-01-16T17:24:37;50.63;;;23.52;;
11052;SDS011;55230;42.602;23.470;2024-01-16T17:27:03;74.10;;;36.28;;
11052;SDS011;55230;42.602;23.470;2024-01-16T17:29:29;73.40;;;35.83;;
11052;SDS011;55230;42.602;23.470;2024-01-16T17:35:16;12.48;;;6.60;;
11052;SDS011;55230;42.602;23.470;2024-01-16T17:38:03;13.95;;;9.27;;
11052;SDS011;55230;42.602;23.470;2024-01-16T17:41:06;18.02;;;8.40;;
11052;SDS011;55230;42.602;23.470;2024-01-16T17:43:35;38.08;;;17.65;;
11052;SDS011;55230;42.602;23.470;2024-01-16T17:46:41;28.77;;;16.75;;
11052;SDS011;55230;42.602;23.470;2024-01-16T17:55:25;40.47;;;21.60;;
11052;SDS011;55230;42.602;23.470;2024-01-16T17:57:58;16.42;;;10.77;;
11052;SDS011;55230;42.602;23.470;2024-01-16T18:00:25;15.88;;;11.52;;
11052;SDS011;55230;42.602;23.470;2024-01-16T18:03:03;18.05;;;10.38;;
11052;SDS011;55230;42.602;23.470;2024-01-16T18:09:08;27.70;;;13.80;;
11052;SDS011;55230;42.602;23.470;2024-01-16T18:11:57;22.98;;;12.70;;
11052;SDS011;55230;42.602;23.470;2024-01-16T18:14:26;24.40;;;12.70;;
11052;SDS011;55230;42.602;23.470;2024-01-16T18:16:53;25.92;;;14.57;;
11052;SDS011;55230;42.602;23.470;2024-01-16T18:19:23;14.55;;;10.77;;
11052;SDS011;55230;42.602;23.470;2024-01-16T18:21:54;15.35;;;8.73;;
11052;SDS011;55230;42.602;23.470;2024-01-16T18:24:27;16.13;;;10.60;;
11052;SDS011;55230;42.602;23.470;2024-01-16T18:26:53;36.67;;;19.13;;
11052;SDS011;55230;42.602;23.470;2024-01-16T18:29:20;10.98;;;8.57;;
11052;SDS011;55230;42.602;23.470;2024-01-16T18:31:46;109.40;;;39.70;;
11052;SDS011;55230;42.602;23.470;2024-01-16T18:34:18;118.18;;;44.53;;
11052;SDS011;55230;42.602;23.470;2024-01-16T18:36:46;48.20;;;21.45;;
11052;SDS011;55230;42.602;23.470;2024-01-16T18:39:13;15.63;;;7.95;;
11052;SDS011;55230;42.602;23.470;2024-01-16T18:41:41;25.60;;;8.90;;
11052;SDS011;55230;42.602;23.470;2024-01-16T18:44:10;25.05;;;9.27;;
11052;SDS011;55230;42.602;23.470;2024-01-16T18:46:37;34.63;;;11.73;;
11052;SDS011;55230;42.602;23.470;2024-01-16T18:49:04;19.20;;;9.38;;
11052;SDS011;55230;42.602;23.470;2024-01-16T18:51:30;34.30;;;11.10;;
11052;SDS011;55230;42.602;23.470;2024-01-16T18:53:56;28.10;;;9.50;;
11052;SDS011;55230;42.602;23.470;2024-01-16T18:56:21;28.95;;;10.68;;
11052;SDS011;55230;42.602;23.470;2024-01-16T18:58:47;32.58;;;11.45;;
11052;SDS011;55230;42.602;23.470;2024-01-16T19:01:19;57.72;;;22.58;;
11052;SDS011;55230;42.602;23.470;2024-01-16T19:03:49;62.67;;;24.30;;
11052;SDS011;55230;42.602;23.470;2024-01-16T19:06:27;42.17;;;17.65;;
11052;SDS011;55230;42.602;23.470;2024-01-16T19:09:00;40.95;;;15.32;;
11052;SDS011;55230;42.602;23.470;2024-01-16T19:11:25;63.42;;;25.63;;
11052;SDS011;55230;42.602;23.470;2024-01-16T19:13:52;64.15;;;25.33;;
11052;SDS011;55230;42.602;23.470;2024-01-16T19:16:17;36.63;;;18.80;;
11052;SDS011;55230;42.602;23.470;2024-01-16T19:18:42;59.83;;;26.88;;
11052;SDS011;55230;42.602;23.470;2024-01-16T19:21:09;48.67;;;22.13;;
11052;SDS011;55230;42.602;23.470;2024-01-16T19:23:35;18.98;;;12.80;;
11052;SDS011;55230;42.602;23.470;2024-01-16T19:26:02;18.00;;;10.73;;
11052;SDS011;55230;42.602;23.470;2024-01-16T19:28:30;9.85;;;7.70;;
11052;SDS011;55230;42.602;23.470;2024-01-16T19:30:58;6.60;;;5.90;;
11052;SDS011;55230;42.602;23.470;2024-01-16T19:33:26;70.25;;;33.08;;
11052;SDS011;55230;42.602;23.470;2024-01-16T19:35:53;111.85;;;49.55;;
11052;SDS011;55230;42.602;23.470;2024-01-16T19:38:23;64.53;;;30.17;;
11052;SDS011;55230;42.602;23.470;2024-01-16T19:40:52;28.13;;;13.88;;
11052;SDS011;55230;42.602;23.470;2024-01-16T19:43:23;10.73;;;7.68;;
11052;SDS011;55230;42.602;23.470;2024-01-16T19:45:49;5.38;;;4.88;;
11052;SDS011;55230;42.602;23.470;2024-01-16T19:48:20;7.72;;;6.13;;
11052;SDS011;55230;42.602;23.470;2024-01-16T19:50:49;19.65;;;13.85;;
11052;SDS011;55230;42.602;23.470;2024-01-16T19:53:14;28.77;;;17.42;;
11052;SDS011;55230;42.602;23.470;2024-01-16T19:55:44;11.75;;;8.65;;
11052;SDS011;55230;42.602;23.470;2024-01-16T19:58:17;16.75;;;12.00;;
11052;SDS011;55230;42.602;23.470;2024-01-16T20:00:45;11.70;;;7.55;;
11052;SDS011;55230;42.602;23.470;2024-01-16T20:03:20;20.65;;;12.43;;
11052;SDS011;55230;42.602;23.470;2024-01-16T20:05:49;17.00;;;11.65;;
11052;SDS011;55230;42.602;23.470;2024-01-16T20:08:17;16.40;;;10.25;;
11052;SDS011;55230;42.602;23.470;2024-01-16T20:10:56;15.75;;;10.48;;
11052;SDS011;55230;42.602;23.470;2024-01-16T20:13:28;7.97;;;7.13;;
11052;SDS011;55230;42.602;23.470;2024-01-16T20:16:18;9.98;;;6.20;;
11052;SDS011;55230;42.602;23.470;2024-01-16T20:18:52;13.60;;;6.60;;
11052;SDS011;55230;42.602;23.470;2024-01-16T20:24:09;9.88;;;8.00;;
11052;SDS011;55230;42.602;23.470;2024-01-16T20:27:03;5.70;;;5.15;;
11052;SDS011;55230;42.602;23.470;2024-01-16T20:29:31;180.23;;;50.63;;
11052;SDS011;55230;42.602;23.470;2024-01-16T20:34:57;28.90;;;12.95;;
11052;SDS011;55230;42.602;23.470;2024-01-16T20:40:17;45.97;;;16.55;;
11052;SDS011;55230;42.602;23.470;2024-01-16T20:42:47;27.65;;;11.77;;
11052;SDS011;55230;42.602;23.470;2024-01-16T20:45:21;54.35;;;20.48;;
11052;SDS011;55230;42.602;23.470;2024-01-16T20:47:47;99.05;;;33.05;;
11052;SDS011;55230;42.602;23.470;2024-01-16T20:53:27;105.68;;;33.50;;
11052;SDS011;55230;42.602;23.470;2024-01-16T20:56:28;106.82;;;33.53;;
11052;SDS011;55230;42.602;23.470;2024-01-16T20:59:09;55.65;;;22.33;;
11052;SDS011;55230;42.602;23.470;2024-01-16T21:01:42;27.65;;;11.18;;
11052;SDS011;55230;42.602;23.470;2024-01-16T21:04:16;31.48;;;13.38;;
11052;SDS011;55230;42.602;23.470;2024-01-16T21:06:51;18.10;;;8.60;;
11052;SDS011;55230;42.602;23.470;2024-01-16T21:12:13;49.17;;;21.88;;
11052;SDS011;55230;42.602;23.470;2024-01-16T21:14:58;35.35;;;16.88;;
11052;SDS011;55230;42.602;23.470;2024-01-16T21:17:29;104.05;;;39.55;;
11052;SDS011;55230;42.602;23.470;2024-01-16T21:19:59;59.00;;;27.42;;
11052;SDS011;55230;42.602;23.470;2024-01-16T21:22:36;72.07;;;28.80;;
11052;SDS011;55230;42.602;23.470;2024-01-16T21:25:04;55.72;;;23.70;;
11052;SDS011;55230;42.602;23.470;2024-01-16T21:27:33;259.10;;;90.53;;
11052;SDS011;55230;42.602;23.470;2024-01-16T21:30:02;178.10;;;66.03;;
11052;SDS011;55230;42.602;23.470;2024-01-16T21:32:30;95.88;;;37.65;;
11052;SDS011;55230;42.602;23.470;2024-01-16T21:34:56;116.38;;;42.88;;
11052;SDS011;55230;42.602;23.470;2024-01-16T21:37:24;57.80;;;24.60;;
11052;SDS011;55230;42.602;23.470;2024-01-16T21:40:02;89.47;;;35.05;;
11052;SDS011;55230;42.602;23.470;2024-01-16T21:42:30;122.15;;;46.85;;
11052;SDS011;55230;42.602;23.470;2024-01-16T21:45:13;75.97;;;25.58;;
11052;SDS011;55230;42.602;23.470;2024-01-16T21:47:50;17.60;;;9.30;;
11052;SDS011;55230;42.602;23.470;2024-01-16T21:50:15;27.98;;;11.50;;
11052;SDS011;55230;42.602;23.470;2024-01-16T21:52:41;73.70;;;26.98;;
11052;SDS011;55230;42.602;23.470;2024-01-16T21:55:18;44.92;;;17.42;;
11052;SDS011;55230;42.602;23.470;2024-01-16T21:57:47;91.05;;;34.90;;
11052;SDS011;55230;42.602;23.470;2024-01-16T22:00:13;46.60;;;22.30;;
11052;SDS011;55230;42.602;23.470;2024-01-16T22:02:41;24.20;;;12.15;;
11052;SDS011;55230;42.602;23.470;2024-01-16T22:05:07;52.65;;;28.27;;
11052;SDS011;55230;42.602;23.470;2024-01-16T22:07:39;43.40;;;23.77;;
11052;SDS011;55230;42.602;23.470;2024-01-16T22:10:06;32.53;;;20.52;;
11052;SDS011;55230;42.602;23.470;2024-01-16T22:12:33;11.63;;;9.98;;
11052;SDS011;55230;42.602;23.470;2024-01-16T22:14:58;7.35;;;4.45;;
11052;SDS011;55230;42.602;23.470;2024-01-16T22:17:24;8.15;;;5.45;;
11052;SDS011;55230;42.602;23.470;2024-01-16T22:19:54;6.28;;;5.38;;
11052;SDS011;55230;42.602;23.470;2024-01-16T22:22:20;6.68;;;6.03;;
11052;SDS011;55230;42.602;23.470;2024-01-16T22:24:46;5.93;;;5.25;;